sensor_id;sensor_type;location;lat;lon;timestamp;pressure;altitude;pressure_sealevel;temperature;humidity
19674;BME280;9986;50.610;7.230;2023-12-20T00:03:15;-1700.82;;;7.02;100.00
19674;BME280;9986;50.610;7.230;2023-12-20T00:08:31;-1700.54;;;7.08;100.00
19674;BME280;9986;50.610;7.230;2023-12-20T00:11:02;-5276.78;;;7.00;100.00
19674;BME280;9986;50.610;7.230;2023-12-20T00:24:18;-3489.23;;;7.05;100.00
19674;BME280;9986;50.610;7.230;2023-12-20T00:32:15;-2513.38;;;7.16;100.00
19674;BME280;9986;50.610;7.230;2023-12-20T00:40:12;-3651.71;;;7.09;100.00
19674;BME280;9986;50.610;7.230;2023-12-20T00:48:03;-6901.04;;;7.05;100.00
19674;BME280;9986;50.610;7.230;2023-12-20T01:01:14;-9823.44;;;7.15;100.00
19674;BME280;9986;50.610;7.230;2023-12-20T01:09:11;-10959.59;;;7.20;100.00
19674;BME280;9986;50.610;7.230;2023-12-20T01:14:21;-9824.09;;;7.23;100.00
19674;BME280;9986;50.610;7.230;2023-12-20T01:22:11;-7713.87;;;7.27;100.00
19674;BME280;9986;50.610;7.230;2023-12-20T01:27:27;-7551.71;;;7.32;100.00
19674;BME280;9986;50.610;7.230;2023-12-20T01:32:36;-8688.12;;;7.27;100.00
19674;BME280;9986;50.610;7.230;2023-12-20T01:43:12;-9987.01;;;7.31;100.00
19674;BME280;9986;50.610;7.230;2023-12-20T01:51:05;-3650.83;;;7.54;100.00
19674;BME280;9986;50.610;7.230;2023-12-20T01:56:16;-69.63;;;7.59;100.00
19674;BME280;9986;50.610;7.230;2023-12-20T02:09:39;7269.73;;;7.70;100.00
19674;BME280;9986;50.610;7.230;2023-12-20T02:14:49;10536.29;;;7.69;100.00
19674;BME280;9986;50.610;7.230;2023-12-20T02:20:06;12661.28;;;7.68;100.00
19674;BME280;9986;50.610;7.230;2023-12-20T02:25:17;19210.05;;;7.72;100.00
19674;BME280;9986;50.610;7.230;2023-12-20T02:30:26;25935.96;;;7.74;100.00
19674;BME280;9986;50.610;7.230;2023-12-20T02:35:37;49492.07;;;7.67;100.00
19674;BME280;9986;50.610;7.230;2023-12-20T02:40:47;83849.61;;;7.40;100.00
19674;BME280;9986;50.610;7.230;2023-12-20T02:45:56;138150.84;;;7.24;100.00
19674;BME280;9986;50.610;7.230;2023-12-20T03:09:51;144478.41;;;6.77;100.00
19674;BME280;9986;50.610;7.230;2023-12-20T03:20:20;144423.27;;;6.55;100.00
19674;BME280;9986;50.610;7.230;2023-12-20T03:25:29;144394.50;;;6.44;100.00
19674;BME280;9986;50.610;7.230;2023-12-20T03:43:56;144398.22;;;6.46;100.00
19674;BME280;9986;50.610;7.230;2023-12-20T03:51:45;144390.70;;;6.43;100.00
19674;BME280;9986;50.610;7.230;2023-12-20T04:15:49;144405.75;;;6.48;100.00
19674;BME280;9986;50.610;7.230;2023-12-20T04:42:34;144433.30;;;6.59;100.00
19674;BME280;9986;50.610;7.230;2023-12-20T04:47:45;144433.30;;;6.59;100.00
19674;BME280;9986;50.610;7.230;2023-12-20T05:11:41;144478.41;;;6.77;100.00
19674;BME280;9986;50.610;7.230;2023-12-20T05:22:12;144430.80;;;6.58;100.00
19674;BME280;9986;50.610;7.230;2023-12-20T05:32:48;144442.06;;;6.63;100.00
19674;BME280;9986;50.610;7.230;2023-12-20T05:40:43;144425.78;;;6.56;100.00
19674;BME280;9986;50.610;7.230;2023-12-20T06:07:22;144443.34;;;6.63;100.00
19674;BME280;9986;50.610;7.230;2023-12-20T06:18:06;144460.84;;;6.70;100.00
19674;BME280;9986;50.610;7.230;2023-12-20T06:23:22;144433.30;;;6.59;100.00
19674;BME280;9986;50.610;7.230;2023-12-20T06:25:53;144445.84;;;6.64;100.00
19674;BME280;9986;50.610;7.230;2023-12-20T06:38:59;144418.25;;;6.53;100.00
19674;BME280;9986;50.610;7.230;2023-12-20T06:52:15;144415.78;;;6.52;100.00
19674;BME280;9986;50.610;7.230;2023-12-20T06:57:24;144450.81;;;6.66;100.00
19674;BME280;9986;50.610;7.230;2023-12-20T07:02:39;144444.56;;;6.64;100.00
19674;BME280;9986;50.610;7.230;2023-12-20T07:13:13;144443.34;;;6.63;100.00
19674;BME280;9986;50.610;7.230;2023-12-20T07:18:22;144455.83;;;6.68;100.00
19674;BME280;9986;50.610;7.230;2023-12-20T07:20:53;144465.86;;;6.72;100.00
19674;BME280;9986;50.610;7.230;2023-12-20T07:26:10;144472.11;;;6.75;100.00
19674;BME280;9986;50.610;7.230;2023-12-20T07:31:20;144485.89;;;6.80;100.00
19674;BME280;9986;50.610;7.230;2023-12-20T07:36:35;144462.13;;;6.71;100.00
19674;BME280;9986;50.610;7.230;2023-12-20T07:44:25;144495.92;;;6.84;100.00
19674;BME280;9986;50.610;7.230;2023-12-20T08:11:05;144503.45;;;6.87;100.00
19674;BME280;9986;50.610;7.230;2023-12-20T08:21:35;144512.22;;;6.91;100.00
19674;BME280;9986;50.610;7.230;2023-12-20T08:32:17;144518.47;;;6.93;100.00
19674;BME280;9986;50.610;7.230;2023-12-20T08:42:48;144558.56;;;7.09;100.00
19674;BME280;9986;50.610;7.230;2023-12-20T08:48:04;144541.06;;;7.02;100.00
19674;BME280;9986;50.610;7.230;2023-12-20T09:01:21;144562.36;;;7.11;100.00
19674;BME280;9986;50.610;7.230;2023-12-20T09:11:55;144593.66;;;7.23;100.00
19674;BME280;9986;50.610;7.230;2023-12-20T09:17:04;144597.45;;;7.25;100.00
19674;BME280;9986;50.610;7.230;2023-12-20T09:22:16;144621.23;;;7.34;100.00
19674;BME280;9986;50.610;7.230;2023-12-20T09:27:25;144627.53;;;7.37;100.00
19674;BME280;9986;50.610;7.230;2023-12-20T09:32:41;144653.81;;;7.47;100.00
19674;BME280;9986;50.610;7.230;2023-12-20T09:43:15;144670.12;;;7.53;100.00
19674;BME280;9986;50.610;7.230;2023-12-20T09:48:31;144695.23;;;7.63;100.00
19674;BME280;9986;50.610;7.230;2023-12-20T09:53:42;144711.53;;;7.70;100.00
19674;BME280;9986;50.610;7.230;2023-12-20T09:58:52;144712.77;;;7.70;100.00
19674;BME280;9986;50.610;7.230;2023-12-20T10:09:32;144740.34;;;7.81;100.00
19674;BME280;9986;50.610;7.230;2023-12-20T10:14:43;144734.09;;;7.79;100.00
19674;BME280;9986;50.610;7.230;2023-12-20T10:28:12;144724.03;;;7.75;100.00
19674;BME280;9986;50.610;7.230;2023-12-20T10:36:06;144720.30;;;7.73;100.00
19674;BME280;9986;50.610;7.230;2023-12-20T10:46:48;144721.53;;;7.74;100.00
19674;BME280;9986;50.610;7.230;2023-12-20T11:05:31;144744.13;;;7.83;100.00
19674;BME280;9986;50.610;7.230;2023-12-20T11:13:26;144750.39;;;7.85;100.00
19674;BME280;9986;50.610;7.230;2023-12-20T11:26:47;144760.44;;;7.89;100.00
19674;BME280;9986;50.610;7.230;2023-12-20T11:32:33;144757.92;;;7.88;100.00
19674;BME280;9986;50.610;7.230;2023-12-20T11:37:42;144759.16;;;7.89;100.00
19674;BME280;9986;50.610;7.230;2023-12-20T11:45:33;144779.20;;;7.97;100.00
19674;BME280;9986;50.610;7.230;2023-12-20T12:04:06;144791.77;;;8.02;100.00
19674;BME280;9986;50.610;7.230;2023-12-20T12:12:01;144800.53;;;8.05;100.00
19674;BME280;9986;50.610;7.230;2023-12-20T13:03:05;144771.72;;;7.94;100.00
19674;BME280;9986;50.610;7.230;2023-12-20T13:08:15;144750.39;;;7.85;100.00
19674;BME280;9986;50.610;7.230;2023-12-20T13:13:31;144769.20;;;7.93;100.00
19674;BME280;9986;50.610;7.230;2023-12-20T13:35:08;144690.22;;;7.61;100.00
19674;BME280;9986;50.610;7.230;2023-12-20T13:37:39;144675.14;;;7.55;100.00
19674;BME280;9986;50.610;7.230;2023-12-20T13:42:49;144698.97;;;7.65;100.00
19674;BME280;9986;50.610;7.230;2023-12-20T13:50:45;144706.50;;;7.68;100.00
19674;BME280;9986;50.610;7.230;2023-12-20T13:55:55;144688.94;;;7.61;100.00
19674;BME280;9986;50.610;7.230;2023-12-20T14:01:06;144696.47;;;7.64;100.00
19674;BME280;9986;50.610;7.230;2023-12-20T14:08:55;144683.91;;;7.59;100.00
19674;BME280;9986;50.610;7.230;2023-12-20T14:24:52;144657.61;;;7.48;100.00
19674;BME280;9986;50.610;7.230;2023-12-20T14:30:09;144655.09;;;7.47;100.00
19674;BME280;9986;50.610;7.230;2023-12-20T14:38:00;144671.41;;;7.54;100.00
19674;BME280;9986;50.610;7.230;2023-12-20T14:54:03;144673.91;;;7.55;100.00
19674;BME280;9986;50.610;7.230;2023-12-20T14:59:15;144661.34;;;7.50;100.00
19674;BME280;9986;50.610;7.230;2023-12-20T15:12:37;144645.06;;;7.43;100.00
19674;BME280;9986;50.610;7.230;2023-12-20T15:23:16;144655.09;;;7.47;100.00
19674;BME280;9986;50.610;7.230;2023-12-20T15:28:27;144660.13;;;7.49;100.00
19674;BME280;9986;50.610;7.230;2023-12-20T15:39:03;144688.94;;;7.61;100.00
19674;BME280;9986;50.610;7.230;2023-12-20T15:44:14;144681.39;;;7.58;100.00
19674;BME280;9986;50.610;7.230;2023-12-20T15:49:23;144702.72;;;7.66;100.00
19674;BME280;9986;50.610;7.230;2023-12-20T16:05:25;144706.50;;;7.68;100.00
19674;BME280;9986;50.610;7.230;2023-12-20T16:10:35;144732.81;;;7.78;100.00
19674;BME280;9986;50.610;7.230;2023-12-20T16:15:44;144712.77;;;7.70;100.00
19674;BME280;9986;50.610;7.230;2023-12-20T16:20:55;144724.03;;;7.75;100.00
19674;BME280;9986;50.610;7.230;2023-12-20T16:34:24;144709.02;;;7.69;100.00
19674;BME280;9986;50.610;7.230;2023-12-20T16:39:34;144696.47;;;7.64;100.00
19674;BME280;9986;50.610;7.230;2023-12-20T16:52:53;144701.48;;;7.66;100.00
19674;BME280;9986;50.610;7.230;2023-12-20T16:58:03;144660.13;;;7.49;100.00
19674;BME280;9986;50.610;7.230;2023-12-20T17:08:39;144661.34;;;7.50;100.00
19674;BME280;9986;50.610;7.230;2023-12-20T17:13:49;144660.13;;;7.49;100.00
19674;BME280;9986;50.610;7.230;2023-12-20T17:27:01;144623.75;;;7.35;100.00
19674;BME280;9986;50.610;7.230;2023-12-20T17:32:16;144662.63;;;7.50;100.00
19674;BME280;9986;50.610;7.230;2023-12-20T17:37:26;144665.09;;;7.51;100.00
19674;BME280;9986;50.610;7.230;2023-12-20T17:42:35;144661.34;;;7.50;100.00
19674;BME280;9986;50.610;7.230;2023-12-20T17:50:28;144673.91;;;7.55;100.00
19674;BME280;9986;50.610;7.230;2023-12-20T17:55:37;144646.34;;;7.44;100.00
19674;BME280;9986;50.610;7.230;2023-12-20T18:03:32;144677.66;;;7.56;100.00
19674;BME280;9986;50.610;7.230;2023-12-20T18:24:55;144697.69;;;7.64;100.00
19674;BME280;9986;50.610;7.230;2023-12-20T18:38:12;144744.13;;;7.83;100.00
19674;BME280;9986;50.610;7.230;2023-12-20T18:51:28;144789.25;;;8.01;100.00
19674;BME280;9986;50.610;7.230;2023-12-20T19:04:46;144786.73;;;8.00;100.00
19674;BME280;9986;50.610;7.230;2023-12-20T19:12:43;144796.78;;;8.04;100.00
19674;BME280;9986;50.610;7.230;2023-12-20T19:17:53;144790.53;;;8.01;100.00
19674;BME280;9986;50.610;7.230;2023-12-20T19:23:03;144815.61;;;8.11;100.00
19674;BME280;9986;50.610;7.230;2023-12-20T19:30:59;144857.03;;;8.28;100.00
19674;BME280;9986;50.610;7.230;2023-12-20T19:47:06;144857.03;;;8.28;100.00
19674;BME280;9986;50.610;7.230;2023-12-20T20:00:16;144845.75;;;8.23;100.00
19674;BME280;9986;50.610;7.230;2023-12-20T20:05:33;144849.50;;;8.25;100.00
19674;BME280;9986;50.610;7.230;2023-12-20T20:21:23;144894.69;;;8.42;100.00
19674;BME280;9986;50.610;7.230;2023-12-20T20:26:39;144894.69;;;8.42;100.00
19674;BME280;9986;50.610;7.230;2023-12-20T20:39:55;144941.11;;;8.61;100.00
19674;BME280;9986;50.610;7.230;2023-12-20T21:03:49;144966.20;;;8.71;100.00
19674;BME280;9986;50.610;7.230;2023-12-20T21:17:00;145000.13;;;8.84;100.00
19674;BME280;9986;50.610;7.230;2023-12-20T21:22:11;144987.55;;;8.79;100.00
19674;BME280;9986;50.610;7.230;2023-12-20T21:27:21;145020.19;;;8.92;100.00
19674;BME280;9986;50.610;7.230;2023-12-20T21:35:17;144995.09;;;8.82;100.00
19674;BME280;9986;50.610;7.230;2023-12-20T21:43:13;145002.63;;;8.85;100.00
19674;BME280;9986;50.610;7.230;2023-12-20T21:54:03;145017.67;;;8.91;100.00
19674;BME280;9986;50.610;7.230;2023-12-20T22:02:01;145011.41;;;8.89;100.00
19674;BME280;9986;50.610;7.230;2023-12-20T22:15:23;145021.47;;;8.93;100.00
19674;BME280;9986;50.610;7.230;2023-12-20T22:20:33;145027.72;;;8.95;100.00
19674;BME280;9986;50.610;7.230;2023-12-20T22:34:03;145025.22;;;8.94;100.00
19674;BME280;9986;50.610;7.230;2023-12-20T22:44:41;145027.72;;;8.95;100.00
19674;BME280;9986;50.610;7.230;2023-12-20T22:57:59;145012.64;;;8.89;100.00
19674;BME280;9986;50.610;7.230;2023-12-20T23:03:09;145016.44;;;8.91;100.00
19674;BME280;9986;50.610;7.230;2023-12-20T23:08:19;144991.34;;;8.81;100.00
19674;BME280;9986;50.610;7.230;2023-12-20T23:18:49;144946.14;;;8.63;100.00
19674;BME280;9986;50.610;7.230;2023-12-20T23:26:46;144919.78;;;8.52;100.00
19674;BME280;9986;50.610;7.230;2023-12-20T23:31:56;144922.28;;;8.53;100.00
19674;BME280;9986;50.610;7.230;2023-12-20T23:53:17;100081.82;;;8.37;100.00
19674;BME280;9986;50.610;7.230;2023-12-20T23:58:25;112219.13;;;8.48;100.00
